Time;durP1;ratioP1;P1;durP2;ratioP2;P2;SDS_P1;SDS_P2;PMS_P1;PMS_P2;Temp;Humidity;BMP_temperature;BMP_pressure;BME280_temperature;BME280_humidity;BME280_pressure;Samples;Min_cycle;Max_cycle;Signal;HPM_P1;HPM_P2
2022/03/13 00:01:11;;;;;;;;;;;20.00;32.30;;;;;;5050297;28;19920;-43
2022/03/13 00:03:40;;;;;;;;;;;20.10;32.40;;;;;;5038608;28;19921;-43
2022/03/13 00:06:08;;;;;;;;;;;20.00;32.30;;;;;;5035297;28;19931;-45
2022/03/13 00:08:37;;;;;;;;;;;20.00;32.30;;;;;;5042827;28;19974;-45
2022/03/13 00:11:07;;;;;;;;;;;20.10;32.30;;;;;;5035352;28;19932;-44
2022/03/13 00:13:35;;;;;;;;;;;20.10;32.40;;;;;;5050087;28;19921;-45
2022/03/13 00:16:03;;;;;;;;;;;20.00;32.30;;;;;;5039540;28;20309;-46
2022/03/13 00:18:32;;;;;;;;;;;20.10;32.40;;;;;;5047651;28;19921;-43
2022/03/13 00:21:03;;;;;;;;;;;20.10;32.30;;;;;;5035367;28;20254;-44
2022/03/13 00:23:30;;;;;;;;;;;20.10;32.40;;;;;;5046076;28;20233;-43
2022/03/13 00:25:57;;;;;;;;;;;20.10;32.30;;;;;;5061550;28;19997;-43
2022/03/13 00:28:26;;;;;;;;;;;20.10;32.30;;;;;;5048566;28;19950;-45
2022/03/13 00:30:53;;;;;;;;;;;20.10;32.30;;;;;;5048668;28;19925;-47
2022/03/13 00:33:20;;;;;;;;;;;20.10;32.40;;;;;;5049096;28;19966;-43
2022/03/13 00:35:47;;;;;;;;;;;20.10;32.30;;;;;;5044645;28;20265;-43
2022/03/13 00:38:16;;;;;;;;;;;20.00;32.20;;;;;;5066640;28;19920;-47
2022/03/13 00:40:48;;;;;;;;;;;20.00;32.20;;;;;;5037949;28;19936;-43
2022/03/13 00:43:14;;;;;;;;;;;20.10;32.30;;;;;;5041324;28;20007;-43
2022/03/13 00:45:41;;;;;;;;;;;20.00;32.20;;;;;;5049271;28;19959;-46
2022/03/13 00:48:08;;;;;;;;;;;20.10;32.30;;;;;;5048891;28;20397;-43
2022/03/13 00:50:37;;;;;;;;;;;20.00;32.20;;;;;;5049674;28;19989;-43
2022/03/13 00:53:04;;;;;;;;;;;20.10;32.30;;;;;;5042928;28;19928;-45
2022/03/13 00:55:32;;;;;;;;;;;20.10;32.30;;;;;;5049865;28;19924;-43
2022/03/13 00:57:59;;;;;;;;;;;20.10;32.30;;;;;;5049373;28;19920;-47
2022/03/13 01:00:26;;;;;;;;;;;20.00;32.20;;;;;;5042384;28;19920;-44
2022/03/13 01:02:53;;;;;;;;;;;20.10;32.30;;;;;;5035192;28;19999;-44
2022/03/13 01:05:21;;;;;;;;;;;20.10;32.20;;;;;;5042471;28;20462;-44
2022/03/13 01:07:48;;;;;;;;;;;20.10;32.30;;;;;;5033490;28;20003;-44
2022/03/13 01:10:14;;;;;;;;;;;20.10;32.30;;;;;;5040128;28;20214;-47
2022/03/13 01:12:43;;;;;;;;;;;20.00;32.20;;;;;;5049360;28;19925;-44
2022/03/13 01:15:10;;;;;;;;;;;20.10;32.20;;;;;;5043810;28;19921;-45
2022/03/13 01:17:37;;;;;;;;;;;20.10;32.20;;;;;;5029744;28;19921;-43
2022/03/13 01:20:05;;;;;;;;;;;20.00;32.20;;;;;;5045735;28;19970;-47
2022/03/13 01:22:31;;;;;;;;;;;20.10;32.20;;;;;;5029117;28;19968;-43
2022/03/13 01:24:58;;;;;;;;;;;20.00;32.10;;;;;;5048057;28;20015;-43
2022/03/13 01:27:25;;;;;;;;;;;20.10;32.20;;;;;;5067800;28;19973;-43
2022/03/13 01:29:58;;;;;;;;;;;20.00;32.10;;;;;;5061174;28;19921;-43
2022/03/13 01:32:24;;;;;;;;;;;20.10;32.10;;;;;;5012495;28;19921;-48
2022/03/13 01:34:51;;;;;;;;;;;20.00;32.10;;;;;;5045763;28;20028;-43
2022/03/13 01:37:30;;;;;;;;;;;20.10;32.10;;;;;;5029578;28;19928;-43
2022/03/13 01:39:57;;;;;;;;;;;20.10;32.10;;;;;;5049293;28;19925;-43
2022/03/13 01:42:23;;;;;;;;;;;20.00;32.10;;;;;;5049183;28;19964;-43
2022/03/13 01:44:50;;;;;;;;;;;20.10;32.10;;;;;;5048008;28;20285;-45
2022/03/13 01:47:18;;;;;;;;;;;20.00;32.00;;;;;;5034029;28;19921;-46
2022/03/13 01:49:45;;;;;;;;;;;20.00;32.00;;;;;;5041432;28;19924;-48
2022/03/13 01:52:12;;;;;;;;;;;20.00;32.00;;;;;;5047299;28;19971;-45
2022/03/13 01:54:44;;;;;;;;;;;20.00;31.90;;;;;;5043758;28;19960;-43
2022/03/13 01:57:15;;;;;;;;;;;20.10;32.00;;;;;;5033719;28;20019;-46
2022/03/13 01:59:41;;;;;;;;;;;20.00;32.00;;;;;;5044567;28;19924;-43
2022/03/13 02:02:08;;;;;;;;;;;20.00;31.90;;;;;;5070135;28;20346;-49
2022/03/13 02:04:36;;;;;;;;;;;20.00;31.90;;;;;;5049331;28;20514;-45
2022/03/13 02:07:03;;;;;;;;;;;20.00;31.90;;;;;;5051271;28;19924;-43
2022/03/13 02:09:30;;;;;;;;;;;20.00;31.90;;;;;;5052172;28;20095;-45
2022/03/13 02:11:58;;;;;;;;;;;20.10;31.90;;;;;;5069811;28;19925;-45
2022/03/13 02:14:24;;;;;;;;;;;20.10;31.90;;;;;;5056414;28;19920;-46
2022/03/13 02:16:51;;;;;;;;;;;20.00;31.90;;;;;;5033047;28;20358;-43
2022/03/13 02:19:18;;;;;;;;;;;20.00;31.80;;;;;;5035973;28;19921;-45
2022/03/13 02:21:48;;;;;;;;;;;20.00;31.80;;;;;;5051458;28;19920;-45
2022/03/13 02:24:20;;;;;;;;;;;20.00;31.80;;;;;;5051978;28;19967;-46
2022/03/13 02:26:55;;;;;;;;;;;20.00;31.80;;;;;;5043989;28;19932;-44
2022/03/13 02:29:22;;;;;;;;;;;20.00;31.80;;;;;;5067676;28;20361;-48
2022/03/13 02:31:48;;;;;;;;;;;20.00;31.70;;;;;;5051869;28;19920;-48
2022/03/13 02:34:15;;;;;;;;;;;20.00;31.80;;;;;;5050595;28;19920;-46
2022/03/13 02:36:53;;;;;;;;;;;20.00;31.80;;;;;;5063849;28;19920;-45
2022/03/13 02:39:21;;;;;;;;;;;20.00;31.70;;;;;;5050968;28;19943;-48
2022/03/13 02:41:50;;;;;;;;;;;20.00;31.70;;;;;;5020902;28;20447;-45
2022/03/13 02:44:17;;;;;;;;;;;20.00;31.70;;;;;;5032019;28;19927;-43
2022/03/13 02:46:54;;;;;;;;;;;20.00;31.70;;;;;;5055957;28;20044;-45
2022/03/13 02:49:22;;;;;;;;;;;20.00;31.70;;;;;;5031755;28;19998;-45
2022/03/13 02:51:49;;;;;;;;;;;20.00;31.70;;;;;;5048712;28;20015;-44
2022/03/13 02:54:16;;;;;;;;;;;20.00;31.70;;;;;;5047669;28;19925;-44
2022/03/13 02:56:45;;;;;;;;;;;20.00;31.70;;;;;;5039834;28;20027;-44
2022/03/13 02:59:12;;;;;;;;;;;20.00;31.60;;;;;;5031827;28;19952;-43
2022/03/13 03:01:42;;;;;;;;;;;20.00;31.60;;;;;;5047791;28;19924;-44
2022/03/13 03:04:09;;;;;;;;;;;20.00;31.60;;;;;;5050731;28;20046;-43
2022/03/13 03:06:37;;;;;;;;;;;20.00;31.60;;;;;;5040406;28;20023;-45
2022/03/13 03:09:04;;;;;;;;;;;20.00;31.60;;;;;;5030944;28;19925;-45
2022/03/13 03:11:32;;;;;;;;;;;20.00;31.60;;;;;;5044784;28;19927;-48
2022/03/13 03:14:02;;;;;;;;;;;20.00;31.60;;;;;;5050738;28;19932;-46
2022/03/13 03:16:29;;;;;;;;;;;20.00;31.60;;;;;;5050816;28;19920;-44
2022/03/13 03:18:56;;;;;;;;;;;20.00;31.60;;;;;;5050910;28;19967;-45
2022/03/13 03:21:23;;;;;;;;;;;20.00;31.60;;;;;;5037453;28;19921;-48
2022/03/13 03:23:50;;;;;;;;;;;20.00;31.60;;;;;;5049404;28;20281;-43
2022/03/13 03:26:16;;;;;;;;;;;20.00;31.60;;;;;;5039049;28;19970;-43
2022/03/13 03:28:44;;;;;;;;;;;20.00;31.60;;;;;;5050790;28;20400;-46
2022/03/13 03:31:13;;;;;;;;;;;20.00;31.60;;;;;;5066048;28;19920;-47
2022/03/13 03:33:40;;;;;;;;;;;20.00;31.60;;;;;;5067852;28;19929;-43
2022/03/13 03:36:06;;;;;;;;;;;20.00;31.60;;;;;;5031679;28;20024;-48
2022/03/13 03:38:33;;;;;;;;;;;20.00;31.50;;;;;;5029861;28;19924;-44
2022/03/13 03:41:00;;;;;;;;;;;20.00;31.50;;;;;;5051057;28;19924;-44
2022/03/13 03:43:26;;;;;;;;;;;20.00;31.50;;;;;;5046230;28;20313;-43
2022/03/13 03:45:53;;;;;;;;;;;20.00;31.50;;;;;;5047879;28;19928;-43
2022/03/13 03:48:22;;;;;;;;;;;20.00;31.50;;;;;;5047692;28;20416;-42
2022/03/13 03:50:48;;;;;;;;;;;20.00;31.50;;;;;;5045558;28;19921;-43
2022/03/13 03:53:18;;;;;;;;;;;20.00;31.50;;;;;;5049750;28;20519;-44
2022/03/13 03:55:45;;;;;;;;;;;20.00;31.40;;;;;;5050031;28;19966;-45
2022/03/13 03:58:12;;;;;;;;;;;20.00;31.40;;;;;;5037676;28;20383;-44
2022/03/13 04:00:39;;;;;;;;;;;20.00;31.40;;;;;;5047515;28;19921;-43
2022/03/13 04:03:06;;;;;;;;;;;20.00;31.40;;;;;;5047896;28;19921;-46
2022/03/13 04:05:34;;;;;;;;;;;20.00;31.40;;;;;;5048593;28;19925;-47
2022/03/13 04:08:00;;;;;;;;;;;20.00;31.40;;;;;;5067047;28;19920;-46
2022/03/13 04:10:27;;;;;;;;;;;20.00;31.40;;;;;;5049193;28;19924;-43
2022/03/13 04:12:54;;;;;;;;;;;20.00;31.40;;;;;;5053146;28;19925;-43
2022/03/13 04:15:20;;;;;;;;;;;20.00;31.40;;;;;;5043143;28;20297;-44
2022/03/13 04:17:47;;;;;;;;;;;20.00;31.30;;;;;;5049288;28;19928;-43
2022/03/13 04:20:14;;;;;;;;;;;20.00;31.90;;;;;;5050296;28;20358;-43
2022/03/13 04:22:42;;;;;;;;;;;20.00;31.30;;;;;;5045777;28;19946;-43
2022/03/13 04:25:11;;;;;;;;;;;20.00;31.30;;;;;;5049756;28;19920;-43
2022/03/13 04:27:38;;;;;;;;;;;20.00;31.30;;;;;;5045064;28;19921;-44
2022/03/13 04:30:05;;;;;;;;;;;20.00;31.30;;;;;;5053001;28;19920;-43
2022/03/13 04:32:32;;;;;;;;;;;19.90;31.20;;;;;;5059847;28;20380;-43
2022/03/13 04:34:59;;;;;;;;;;;20.00;31.20;;;;;;5067158;28;19920;-43
2022/03/13 04:37:27;;;;;;;;;;;20.00;31.20;;;;;;5048717;28;19928;-43
2022/03/13 04:39:55;;;;;;;;;;;20.00;31.20;;;;;;5049524;28;19962;-44
2022/03/13 04:42:22;;;;;;;;;;;20.00;31.20;;;;;;5060705;28;19978;-49
2022/03/13 04:44:49;;;;;;;;;;;19.90;31.10;;;;;;5048657;28;19993;-43
2022/03/13 04:47:15;;;;;;;;;;;19.90;31.10;;;;;;5065627;28;19921;-43
2022/03/13 04:49:42;;;;;;;;;;;19.90;31.10;;;;;;5066774;28;20384;-46
2022/03/13 04:52:09;;;;;;;;;;;19.90;31.00;;;;;;5048888;28;20384;-43
2022/03/13 04:54:36;;;;;;;;;;;20.00;31.10;;;;;;5030121;28;20033;-43
2022/03/13 04:57:05;;;;;;;;;;;20.00;31.10;;;;;;5048257;28;19924;-43
2022/03/13 04:59:34;;;;;;;;;;;20.00;31.10;;;;;;5030080;28;20009;-46
2022/03/13 05:02:01;;;;;;;;;;;19.90;31.00;;;;;;5029814;28;19924;-43
2022/03/13 05:04:27;;;;;;;;;;;20.00;31.10;;;;;;5048136;28;19931;-45
2022/03/13 05:06:58;;;;;;;;;;;20.00;31.10;;;;;;5026937;28;19992;-43
2022/03/13 05:09:25;;;;;;;;;;;20.00;31.10;;;;;;5039272;28;19925;-47
2022/03/13 05:11:51;;;;;;;;;;;19.90;31.00;;;;;;5030013;28;19924;-47
2022/03/13 05:14:19;;;;;;;;;;;19.90;30.90;;;;;;5063536;28;19974;-43
2022/03/13 05:16:46;;;;;;;;;;;20.00;31.00;;;;;;5043181;28;19928;-43
2022/03/13 05:19:13;;;;;;;;;;;19.90;30.90;;;;;;5061737;28;20289;-43
2022/03/13 05:21:41;;;;;;;;;;;19.90;30.90;;;;;;5048299;28;19925;-44
2022/03/13 05:24:08;;;;;;;;;;;19.90;30.90;;;;;;5047975;28;19920;-43
2022/03/13 05:26:35;;;;;;;;;;;19.90;30.90;;;;;;5064625;28;20361;-45
2022/03/13 05:29:02;;;;;;;;;;;19.90;30.90;;;;;;5037246;28;19921;-43
2022/03/13 05:31:30;;;;;;;;;;;19.90;30.90;;;;;;5049732;28;19927;-45
2022/03/13 05:33:57;;;;;;;;;;;19.90;30.90;;;;;;5041898;28;19920;-45
2022/03/13 05:36:24;;;;;;;;;;;19.90;30.90;;;;;;5041008;28;19987;-45
2022/03/13 05:38:51;;;;;;;;;;;19.90;30.90;;;;;;5040424;28;19959;-44
2022/03/13 05:41:20;;;;;;;;;;;19.90;30.90;;;;;;5052854;28;19920;-43
2022/03/13 05:43:49;;;;;;;;;;;19.90;30.80;;;;;;5052067;28;19920;-45
2022/03/13 05:46:17;;;;;;;;;;;19.90;30.80;;;;;;5048796;28;20317;-43
2022/03/13 05:48:46;;;;;;;;;;;19.90;30.80;;;;;;5051356;28;19963;-44
2022/03/13 05:51:15;;;;;;;;;;;19.90;30.80;;;;;;5047113;28;19929;-43
2022/03/13 05:53:42;;;;;;;;;;;19.90;30.80;;;;;;5036572;28;19987;-43
2022/03/13 05:56:12;;;;;;;;;;;19.90;30.80;;;;;;5070499;28;19932;-45
2022/03/13 05:58:41;;;;;;;;;;;19.90;30.80;;;;;;5069324;28;19962;-43
2022/03/13 06:01:09;;;;;;;;;;;19.90;30.80;;;;;;5037855;28;20281;-45
2022/03/13 06:03:36;;;;;;;;;;;19.90;30.80;;;;;;5035149;28;19921;-45
2022/03/13 06:06:05;;;;;;;;;;;19.90;30.80;;;;;;5046238;28;19944;-43
2022/03/13 06:08:32;;;;;;;;;;;19.90;30.70;;;;;;5051382;28;20324;-44
2022/03/13 06:10:59;;;;;;;;;;;19.90;30.80;;;;;;5031341;28;19939;-45
2022/03/13 06:13:25;;;;;;;;;;;19.90;30.70;;;;;;5062635;28;20058;-43
2022/03/13 06:15:52;;;;;;;;;;;19.90;30.70;;;;;;5069480;28;19971;-45
2022/03/13 06:18:19;;;;;;;;;;;19.90;30.70;;;;;;5038128;28;19921;-43
2022/03/13 06:20:46;;;;;;;;;;;19.90;30.70;;;;;;5047676;28;20460;-43
2022/03/13 06:23:16;;;;;;;;;;;19.90;30.70;;;;;;5068901;28;19958;-45
2022/03/13 06:25:43;;;;;;;;;;;19.90;30.70;;;;;;5041881;28;19990;-43
2022/03/13 06:28:10;;;;;;;;;;;19.90;30.70;;;;;;5031732;28;19957;-45
2022/03/13 06:30:37;;;;;;;;;;;19.90;30.60;;;;;;5044981;28;19920;-43
2022/03/13 06:33:04;;;;;;;;;;;19.90;30.60;;;;;;5040740;28;19927;-43
2022/03/13 06:35:32;;;;;;;;;;;19.90;30.70;;;;;;5038111;28;19935;-43
2022/03/13 06:37:59;;;;;;;;;;;19.90;30.60;;;;;;5031213;28;19971;-44
2022/03/13 06:40:27;;;;;;;;;;;19.90;30.60;;;;;;5049409;28;20019;-47
2022/03/13 06:42:54;;;;;;;;;;;19.90;30.60;;;;;;5051864;28;20003;-43
2022/03/13 06:45:21;;;;;;;;;;;19.90;30.60;;;;;;5042698;28;19928;-44
2022/03/13 06:47:49;;;;;;;;;;;19.90;30.60;;;;;;5043409;28;20010;-43
2022/03/13 06:50:17;;;;;;;;;;;19.90;30.60;;;;;;5056063;28;19948;-46
2022/03/13 06:52:45;;;;;;;;;;;19.90;30.60;;;;;;5069350;28;19928;-43
2022/03/13 06:55:13;;;;;;;;;;;19.90;30.60;;;;;;5049527;28;19932;-46
2022/03/13 06:57:41;;;;;;;;;;;19.90;30.60;;;;;;5067542;28;19985;-44
2022/03/13 07:00:08;;;;;;;;;;;19.90;30.60;;;;;;5050756;28;19920;-44
2022/03/13 07:02:35;;;;;;;;;;;19.90;30.60;;;;;;5046421;28;19927;-43
2022/03/13 07:05:04;;;;;;;;;;;19.90;30.60;;;;;;5068165;28;20463;-44
2022/03/13 07:07:31;;;;;;;;;;;19.90;30.50;;;;;;5048742;28;19933;-43
2022/03/13 07:09:58;;;;;;;;;;;19.90;30.50;;;;;;5041965;28;19924;-47
2022/03/13 07:12:24;;;;;;;;;;;19.90;30.50;;;;;;5043345;28;19921;-43
2022/03/13 07:14:55;;;;;;;;;;;19.90;30.50;;;;;;5038339;28;19920;-42
2022/03/13 07:17:22;;;;;;;;;;;19.90;30.50;;;;;;5041116;28;19921;-44
2022/03/13 07:19:49;;;;;;;;;;;19.90;30.50;;;;;;5037928;28;19925;-44
2022/03/13 07:22:16;;;;;;;;;;;19.90;30.50;;;;;;5062021;28;19933;-46
2022/03/13 07:24:43;;;;;;;;;;;19.90;30.40;;;;;;5038929;28;19948;-43
2022/03/13 07:27:09;;;;;;;;;;;19.90;30.40;;;;;;5058254;28;19925;-49
2022/03/13 07:29:36;;;;;;;;;;;19.90;30.50;;;;;;5057451;28;19921;-46
2022/03/13 07:32:05;;;;;;;;;;;19.90;30.40;;;;;;5037761;28;20386;-46
2022/03/13 07:34:32;;;;;;;;;;;19.90;30.40;;;;;;5040537;28;19925;-43
2022/03/13 07:36:59;;;;;;;;;;;19.90;30.40;;;;;;5040008;28;19921;-47
2022/03/13 07:39:26;;;;;;;;;;;19.90;30.40;;;;;;5040174;28;20358;-44
2022/03/13 07:41:56;;;;;;;;;;;19.90;30.40;;;;;;5037728;28;19927;-46
2022/03/13 07:44:23;;;;;;;;;;;19.90;30.40;;;;;;5039916;28;19928;-44
2022/03/13 07:46:50;;;;;;;;;;;19.90;30.40;;;;;;5037225;28;20305;-47
2022/03/13 07:49:18;;;;;;;;;;;19.90;30.40;;;;;;5056730;28;19973;-43
2022/03/13 07:51:44;;;;;;;;;;;19.90;30.40;;;;;;5041854;28;20446;-43
2022/03/13 07:54:13;;;;;;;;;;;19.90;30.30;;;;;;5039507;28;19928;-44
2022/03/13 07:56:39;;;;;;;;;;;19.90;30.30;;;;;;5054367;28;19981;-48
2022/03/13 07:59:09;;;;;;;;;;;19.90;30.30;;;;;;5058951;28;19921;-46
2022/03/13 08:01:36;;;;;;;;;;;19.90;30.30;;;;;;5045325;28;20384;-44
2022/03/13 08:04:04;;;;;;;;;;;19.90;30.40;;;;;;5062514;28;19925;-45
2022/03/13 08:06:35;;;;;;;;;;;19.90;30.40;;;;;;5061200;28;20019;-43
2022/03/13 08:09:01;;;;;;;;;;;19.90;30.40;;;;;;5038035;28;19925;-44
2022/03/13 08:11:28;;;;;;;;;;;19.90;30.40;;;;;;5042669;28;19943;-46
2022/03/13 08:13:55;;;;;;;;;;;19.90;30.50;;;;;;5063503;28;20006;-48
2022/03/13 08:16:21;;;;;;;;;;;19.90;30.50;;;;;;5062214;28;19921;-46
2022/03/13 08:18:48;;;;;;;;;;;19.90;30.50;;;;;;5042420;28;19964;-43
2022/03/13 08:21:16;;;;;;;;;;;19.90;30.40;;;;;;5041717;28;19932;-48
2022/03/13 08:23:44;;;;;;;;;;;19.90;30.50;;;;;;5046421;28;20036;-44
2022/03/13 08:26:11;;;;;;;;;;;19.90;30.50;;;;;;5044220;28;19928;-45
2022/03/13 08:28:38;;;;;;;;;;;19.90;30.50;;;;;;5042292;28;19920;-45
2022/03/13 08:31:05;;;;;;;;;;;19.90;30.50;;;;;;5062090;28;20104;-45
2022/03/13 08:33:31;;;;;;;;;;;19.90;30.50;;;;;;5042601;28;20379;-44
2022/03/13 08:35:58;;;;;;;;;;;19.90;30.40;;;;;;5039755;28;20540;-44
2022/03/13 08:38:25;;;;;;;;;;;19.90;30.30;;;;;;5041881;28;19928;-44
2022/03/13 08:40:53;;;;;;;;;;;19.90;30.00;;;;;;5040435;28;19921;-48
2022/03/13 08:43:20;;;;;;;;;;;19.90;29.80;;;;;;5035605;28;19968;-44
2022/03/13 08:45:47;;;;;;;;;;;19.90;29.60;;;;;;5045947;28;20020;-46
2022/03/13 08:48:14;;;;;;;;;;;19.90;29.50;;;;;;5042607;28;19932;-45
2022/03/13 08:50:43;;;;;;;;;;;19.90;29.30;;;;;;5041645;28;19967;-47
2022/03/13 08:53:10;;;;;;;;;;;19.90;29.10;;;;;;5040473;28;19932;-46
2022/03/13 08:55:36;;;;;;;;;;;19.80;28.80;;;;;;5042459;28;19928;-43
2022/03/13 08:58:04;;;;;;;;;;;19.90;28.70;;;;;;5035838;28;20277;-43
2022/03/13 09:00:32;;;;;;;;;;;19.80;28.60;;;;;;5049985;28;19928;-48
2022/03/13 09:02:59;;;;;;;;;;;19.80;28.50;;;;;;5048216;28;19920;-43
2022/03/13 09:05:26;;;;;;;;;;;19.80;28.30;;;;;;5053530;28;20296;-44
2022/03/13 09:07:53;;;;;;;;;;;19.80;28.20;;;;;;5054541;28;19942;-45
2022/03/13 09:10:20;;;;;;;;;;;19.80;28.00;;;;;;5060581;28;19924;-45
2022/03/13 09:12:47;;;;;;;;;;;19.80;27.90;;;;;;5037941;28;19928;-46
2022/03/13 09:15:15;;;;;;;;;;;19.80;27.70;;;;;;5046293;28;19959;-45
2022/03/13 09:17:42;;;;;;;;;;;19.70;27.50;;;;;;5050256;28;20321;-47
2022/03/13 09:20:11;;;;;;;;;;;19.70;27.30;;;;;;5044908;28;19981;-44
2022/03/13 09:22:38;;;;;;;;;;;19.70;27.30;;;;;;5058012;28;20281;-44
2022/03/13 09:25:05;;;;;;;;;;;19.70;27.20;;;;;;5060434;28;20224;-45
2022/03/13 09:27:34;;;;;;;;;;;19.70;27.30;;;;;;5049180;28;19928;-45
2022/03/13 09:30:00;;;;;;;;;;;19.70;27.30;;;;;;5041587;28;19920;-44
2022/03/13 09:32:28;;;;;;;;;;;19.60;27.10;;;;;;5058884;28;20289;-44
2022/03/13 09:34:55;;;;;;;;;;;19.70;27.10;;;;;;5051000;28;19928;-44
2022/03/13 09:37:23;;;;;;;;;;;19.60;26.80;;;;;;5042231;28;19946;-44
2022/03/13 09:39:50;;;;;;;;;;;19.60;26.70;;;;;;5053885;28;19926;-44
2022/03/13 09:42:17;;;;;;;;;;;19.60;26.50;;;;;;5044121;28;19928;-44
2022/03/13 09:44:44;;;;;;;;;;;19.60;26.30;;;;;;5045172;28;19921;-45
2022/03/13 09:47:11;;;;;;;;;;;19.50;26.10;;;;;;5046010;28;19928;-44
2022/03/13 09:49:41;;;;;;;;;;;19.60;26.00;;;;;;5064750;28;19990;-43
2022/03/13 09:52:08;;;;;;;;;;;19.60;26.00;;;;;;5047176;28;20359;-46
2022/03/13 09:54:35;;;;;;;;;;;19.50;26.00;;;;;;5062512;28;19939;-46
2022/03/13 09:57:02;;;;;;;;;;;19.50;25.90;;;;;;5040890;28;20231;-44
2022/03/13 09:59:31;;;;;;;;;;;19.50;25.70;;;;;;5045073;28;20003;-44
2022/03/13 10:01:58;;;;;;;;;;;19.50;25.70;;;;;;5052685;28;20068;-45
2022/03/13 10:04:25;;;;;;;;;;;19.50;25.50;;;;;;5062449;28;19986;-51
2022/03/13 10:07:02;;;;;;;;;;;19.50;25.40;;;;;;5046303;28;20424;-43
2022/03/13 10:09:30;;;;;;;;;;;19.40;25.20;;;;;;5064253;28;19920;-48
2022/03/13 10:12:04;;;;;;;;;;;19.40;25.10;;;;;;5040876;28;20114;-45
2022/03/13 10:14:31;;;;;;;;;;;19.40;25.10;;;;;;5060424;28;19920;-44
2022/03/13 10:16:58;;;;;;;;;;;19.40;25.00;;;;;;5043907;28;19992;-45
2022/03/13 10:19:26;;;;;;;;;;;19.40;24.90;;;;;;5044146;28;20015;-45
2022/03/13 10:22:00;;;;;;;;;;;19.40;24.80;;;;;;5045275;28;19969;-44
2022/03/13 10:24:28;;;;;;;;;;;19.40;24.70;;;;;;5060183;28;20372;-44
2022/03/13 10:26:56;;;;;;;;;;;19.30;24.70;;;;;;5044579;28;19920;-45
2022/03/13 10:29:33;;;;;;;;;;;19.30;24.70;;;;;;5035552;28;19975;-45
2022/03/13 10:32:00;;;;;;;;;;;19.30;24.70;;;;;;5047205;28;19924;-46
2022/03/13 10:34:27;;;;;;;;;;;19.30;24.60;;;;;;5042559;28;19925;-45
2022/03/13 10:36:54;;;;;;;;;;;19.30;24.60;;;;;;5039523;28;19928;-48
2022/03/13 10:39:22;;;;;;;;;;;19.30;24.70;;;;;;5062047;28;20343;-44
2022/03/13 10:41:56;;;;;;;;;;;19.30;25.00;;;;;;5057578;28;20325;-45
2022/03/13 10:44:25;;;;;;;;;;;19.30;25.20;;;;;;5043342;28;19988;-48
2022/03/13 10:46:54;;;;;;;;;;;19.30;25.40;;;;;;5064451;28;19932;-51
2022/03/13 10:49:40;;;;;;;;;;;19.30;25.60;;;;;;5047020;28;20015;-48
2022/03/13 10:52:23;;;;;;;;;;;19.30;25.80;;;;;;5049612;28;19928;-46
2022/03/13 10:54:50;;;;;;;;;;;19.30;25.90;;;;;;5054011;28;19962;-48
2022/03/13 10:57:19;;;;;;;;;;;19.40;26.20;;;;;;5040589;28;20370;-48
2022/03/13 10:59:46;;;;;;;;;;;19.40;26.30;;;;;;5049524;28;19928;-43
2022/03/13 11:02:13;;;;;;;;;;;19.40;26.40;;;;;;5059454;28;19920;-45
2022/03/13 11:04:47;;;;;;;;;;;19.40;26.50;;;;;;5067321;28;19928;-47
2022/03/13 11:07:14;;;;;;;;;;;19.40;26.60;;;;;;5043553;28;20015;-45
2022/03/13 11:09:41;;;;;;;;;;;19.40;26.70;;;;;;5059316;28;19963;-45
2022/03/13 11:12:17;;;;;;;;;;;19.40;26.80;;;;;;5039094;28;19932;-46
2022/03/13 11:14:46;;;;;;;;;;;19.50;26.90;;;;;;5042307;28;20045;-43
2022/03/13 11:17:13;;;;;;;;;;;19.50;27.00;;;;;;5056830;28;19975;-46
2022/03/13 11:19:39;;;;;;;;;;;19.50;27.10;;;;;;5048517;28;20418;-46
2022/03/13 11:22:06;;;;;;;;;;;19.50;27.20;;;;;;5043845;28;20282;-44
2022/03/13 11:24:36;;;;;;;;;;;19.50;27.20;;;;;;5058618;28;19940;-45
2022/03/13 11:27:03;;;;;;;;;;;19.50;27.30;;;;;;5048705;28;19933;-45
2022/03/13 11:29:43;;;;;;;;;;;19.50;27.40;;;;;;5039422;28;19925;-46
2022/03/13 11:32:34;;;;;;;;;;;19.50;27.40;;;;;;5042363;28;19928;-43
2022/03/13 11:35:19;;;;;;;;;;;19.50;27.50;;;;;;5040135;28;19920;-43
2022/03/13 11:37:48;;;;;;;;;;;19.60;27.60;;;;;;5054354;28;20024;-43
2022/03/13 11:40:15;;;;;;;;;;;19.60;27.70;;;;;;5043598;28;19962;-43
2022/03/13 11:42:46;;;;;;;;;;;19.60;28.20;;;;;;5036115;28;19925;-44
2022/03/13 11:45:28;;;;;;;;;;;19.60;27.80;;;;;;5059745;28;19921;-47
2022/03/13 11:47:55;;;;;;;;;;;19.60;27.80;;;;;;5042389;28;20281;-47
2022/03/13 11:50:22;;;;;;;;;;;19.60;27.90;;;;;;5056803;28;19956;-44
2022/03/13 11:52:50;;;;;;;;;;;19.60;27.90;;;;;;5062204;28;20239;-43
2022/03/13 11:55:17;;;;;;;;;;;19.60;28.00;;;;;;5043546;28;19931;-47
2022/03/13 11:57:44;;;;;;;;;;;19.60;28.00;;;;;;5039737;28;19924;-49
2022/03/13 12:00:30;;;;;;;;;;;19.60;28.10;;;;;;5042380;28;19959;-44
2022/03/13 12:03:07;;;;;;;;;;;19.60;28.10;;;;;;5042724;28;19930;-45
2022/03/13 12:05:33;;;;;;;;;;;19.70;28.20;;;;;;5043951;28;19974;-44
2022/03/13 12:08:05;;;;;;;;;;;19.60;28.10;;;;;;5043942;28;19925;-46
2022/03/13 12:10:35;;;;;;;;;;;19.70;28.30;;;;;;5041343;28;19920;-47
2022/03/13 12:13:05;;;;;;;;;;;19.60;28.20;;;;;;5060751;28;19924;-47
2022/03/13 12:15:31;;;;;;;;;;;19.70;28.30;;;;;;5044341;28;19974;-48
2022/03/13 12:17:58;;;;;;;;;;;19.70;28.30;;;;;;5042812;28;19929;-44
2022/03/13 12:20:26;;;;;;;;;;;19.70;28.30;;;;;;5042596;28;19921;-45
2022/03/13 12:22:54;;;;;;;;;;;19.70;28.30;;;;;;5044433;28;19974;-49
2022/03/13 12:25:25;;;;;;;;;;;19.70;28.40;;;;;;5040985;28;19928;-44
2022/03/13 12:27:52;;;;;;;;;;;19.70;28.40;;;;;;5046336;28;20354;-43
2022/03/13 12:30:23;;;;;;;;;;;19.70;28.40;;;;;;5062380;28;19960;-44
2022/03/13 12:32:53;;;;;;;;;;;19.70;28.40;;;;;;5039467;28;19920;-43
2022/03/13 12:35:20;;;;;;;;;;;19.70;28.40;;;;;;5039403;28;19924;-47
2022/03/13 12:37:52;;;;;;;;;;;19.70;28.40;;;;;;5039567;28;19921;-43
2022/03/13 12:40:21;;;;;;;;;;;19.70;28.50;;;;;;5058783;28;19984;-43
2022/03/13 12:42:53;;;;;;;;;;;19.70;28.50;;;;;;5043322;28;19924;-49
2022/03/13 12:45:20;;;;;;;;;;;19.70;28.50;;;;;;5040360;28;19924;-48
2022/03/13 12:47:51;;;;;;;;;;;19.70;28.50;;;;;;5044570;28;19955;-49
2022/03/13 12:50:18;;;;;;;;;;;19.70;28.60;;;;;;5061479;28;19925;-45
2022/03/13 12:52:53;;;;;;;;;;;19.70;28.50;;;;;;5043158;28;19924;-45
2022/03/13 12:55:22;;;;;;;;;;;19.70;28.40;;;;;;5039467;28;19924;-44
2022/03/13 12:57:50;;;;;;;;;;;19.70;28.20;;;;;;5042918;28;20173;-43
2022/03/13 13:00:19;;;;;;;;;;;19.70;27.70;;;;;;5061945;28;20471;-45
2022/03/13 13:02:57;;;;;;;;;;;19.70;27.20;;;;;;5038819;28;20019;-46
2022/03/13 13:05:24;;;;;;;;;;;19.70;26.80;;;;;;5039980;28;19975;-47
2022/03/13 13:07:51;;;;;;;;;;;19.70;26.30;;;;;;5061250;28;19944;-47
2022/03/13 13:10:17;;;;;;;;;;;19.60;25.80;;;;;;5060151;28;19924;-47
2022/03/13 13:12:44;;;;;;;;;;;19.60;25.40;;;;;;5042832;28;19921;-43
2022/03/13 13:15:12;;;;;;;;;;;19.60;25.00;;;;;;5058497;28;19984;-44
2022/03/13 13:17:40;;;;;;;;;;;19.60;24.90;;;;;;5059104;28;19935;-44
2022/03/13 13:20:08;;;;;;;;;;;19.50;24.70;;;;;;5042204;28;19921;-47
2022/03/13 13:22:38;;;;;;;;;;;19.50;24.50;;;;;;5061110;28;19982;-45
2022/03/13 13:25:09;;;;;;;;;;;19.50;24.50;;;;;;5038115;28;19927;-46
2022/03/13 13:27:37;;;;;;;;;;;19.50;24.60;;;;;;5057787;28;19921;-45
2022/03/13 13:30:22;;;;;;;;;;;19.40;24.60;;;;;;5039321;28;20346;-45
2022/03/13 13:32:51;;;;;;;;;;;19.40;24.60;;;;;;5038581;28;19924;-44
2022/03/13 13:35:24;;;;;;;;;;;19.40;24.70;;;;;;5054733;28;19978;-47
2022/03/13 13:37:56;;;;;;;;;;;19.40;24.60;;;;;;5038408;28;20829;-43
2022/03/13 13:40:23;;;;;;;;;;;19.40;24.60;;;;;;5038114;28;19924;-47
2022/03/13 13:42:56;;;;;;;;;;;19.40;24.70;;;;;;5037476;28;19929;-43
2022/03/13 13:45:32;;;;;;;;;;;19.40;24.90;;;;;;5043062;28;20299;-48
2022/03/13 13:48:14;;;;;;;;;;;19.40;24.90;;;;;;5037884;28;19920;-46
2022/03/13 13:50:43;;;;;;;;;;;19.40;24.90;;;;;;5041247;28;19921;-46
2022/03/13 13:53:10;;;;;;;;;;;19.40;24.80;;;;;;5040477;28;19951;-45
2022/03/13 13:55:37;;;;;;;;;;;19.40;24.90;;;;;;5041905;28;19921;-45
2022/03/13 13:58:14;;;;;;;;;;;19.40;24.90;;;;;;5060466;28;19946;-45
2022/03/13 14:00:40;;;;;;;;;;;19.40;25.10;;;;;;5039610;28;19924;-47
2022/03/13 14:03:07;;;;;;;;;;;19.40;25.30;;;;;;5038617;28;19921;-47
2022/03/13 14:05:34;;;;;;;;;;;19.40;25.60;;;;;;5037907;28;19940;-43
2022/03/13 14:08:02;;;;;;;;;;;19.40;25.80;;;;;;5050765;28;19954;-42
2022/03/13 14:10:29;;;;;;;;;;;19.40;25.90;;;;;;5051881;28;19920;-47
2022/03/13 14:12:56;;;;;;;;;;;19.50;26.10;;;;;;5041175;28;20373;-48
2022/03/13 14:15:23;;;;;;;;;;;19.40;26.20;;;;;;5040516;28;19956;-43
2022/03/13 14:17:50;;;;;;;;;;;19.50;26.40;;;;;;5032780;28;19983;-44
2022/03/13 14:20:17;;;;;;;;;;;19.50;26.50;;;;;;5032500;28;19931;-43
2022/03/13 14:22:47;;;;;;;;;;;19.50;26.60;;;;;;5049909;28;20278;-47